Delta, Utah Weather observations

Data are for observation ending at time listed.
 Day   Time    Ave.   Ave.  Ave.  Vector   Max.   Stn.    Total    Solar   Ave.  
  of    of     Air    Rel.  Wind   Wind    Wind   Baro.  Precip.   Rad.    Soil  
Year   Day     Temp.  Hum.  Speed  Dir.    Gust   Pres.                    Temp. 
2015   (MST)    F      %     mph   deg.    mph     mb.     in.     W/m2     F   
------------------------------------------------------------------------------
 143    1:10   48.4    72    1.7   112      3.2   857.4    0.00       0    99999.0
 143    1:20   48.6    71    1.9   111      3.4   857.4    0.00       0    99999.0
 143    1:30   48.7    71    2.3   139      3.4   857.4    0.00       0    99999.0
 143    1:40   48.6    72    2.3   158      3.8   857.4    0.00       0    99999.0
 143    1:50   48.5    73    2.5   160      4.0   857.3    0.00       0    99999.0
 143    2:00   48.3    74    1.9   166      4.9   857.3    0.00       0    99999.0
 143    2:10   48.2    76    1.3   166      2.6   857.3    0.00       0    99999.0
 143    2:20   48.0    78    1.4   160      2.6   857.3    0.00       0    99999.0
 143    2:30   47.9    78    2.3   182      4.1   857.2    0.00       0    99999.0
 143    2:40   47.7    79    1.8   184      3.2   857.2    0.00       0    99999.0
 143    2:50   47.4    80    1.6   160      3.0   857.2    0.00       0    99999.0
 143    3:00   47.1    81    2.2   182      4.7   857.2    0.00       0    99999.0
 143    3:10   47.0    80    3.5   192      5.7   857.1    0.00       0    99999.0
 143    3:20   47.3    78    3.6   196      5.9   857.0    0.00       0    99999.0
 143    3:30   47.5    76    3.4   171      6.2   857.0    0.00       0    99999.0
 143    3:40   47.7    76    3.3   166      5.8   856.9    0.00       0    99999.0
 143    3:50   47.6    78    3.1   164      6.1   856.8    0.00       0    99999.0
 143    4:00   47.1    80    3.5   151      6.5   856.8    0.00       0    99999.0
 143    4:10   46.7    81    3.1   144      5.3   856.9    0.00       0    99999.0
 143    4:20   46.3    83    3.0   142      4.5   856.9    0.00       0    99999.0
 143    4:30   46.0    84    3.0   148      5.4   856.9    0.00       0    99999.0
 143    4:40   45.9    85    2.4   157      3.8   856.8    0.00       1    99999.0
 143    4:50   45.7    85    2.2   152      4.2   856.8    0.00       1    99999.0
 143    5:00   45.5    86    2.1   146      3.9   856.9    0.00       1    99999.0
 143    5:10   45.5    86    1.6   134      3.4   856.9    0.00       3    99999.0
 143    5:20   45.6    86    1.9   130      3.0   856.9    0.00       3    99999.0
 143    5:30   45.6    87    2.2   132      3.4   857.0    0.00       8    99999.0
 143    5:40   45.7    87    2.2   144      3.2   857.0    0.00      16    99999.0
 143    5:50   45.9    87    2.0   149      3.5   857.0    0.00      26    99999.0
 143    6:00   46.1    87    2.7   139      4.5   856.9    0.00      24    99999.0
 143    6:10   45.9    87    2.8   139      4.7   857.0    0.00      37    99999.0
 143    6:20   46.0    86    1.7   152      3.7   857.1    0.00      51    99999.0
 143    6:30   46.4    83    1.7   140      2.7   857.1    0.00      48    99999.0
 143    6:40   46.6    82    1.9   132      3.3   857.1    0.00      47    99999.0
 143    6:50   46.7    81    1.9   135      3.0   857.1    0.00      50    99999.0
 143    7:00   46.9    80    2.2   139      3.5   857.1    0.00      59    99999.0
 143    7:10   47.1    79    2.1   132      3.1   857.1    0.00      68    99999.0
 143    7:20   47.5    78    1.8   130      3.1   857.1    0.00      81    99999.0
 143    7:30   48.0    77    1.5   130      2.8   857.3    0.00      96    99999.0
 143    7:40   48.6    75    1.8   130      3.5   857.3    0.00     112    99999.0
 143    7:50   49.3    72    2.0   127      3.4   857.3    0.00     146    99999.0
 143    8:00   49.7    70    1.9   127      3.2   857.4    0.00     137    99999.0
 143    8:10   49.9    67    2.5   134      4.6   857.4    0.00     156    99999.0
 143    8:20   50.2    66    2.2   158      3.9   857.4    0.00     189    99999.0
 143    8:30   51.1    65    2.3   143      4.6   857.4    0.00     273    99999.0
 143    8:40   51.5    64    2.4   169      5.0   857.4    0.00     271    99999.0
 143    8:50   51.4    64    1.8   187      4.4   857.4    0.00     268    99999.0
 143    9:00   51.5    65    2.4   178      4.5   857.4    0.00     229    99999.0
 143    9:10   51.8    65    2.4   154      4.9   857.4    0.00     176    99999.0
 143    9:20   51.6    64    2.7   185      4.7   857.4    0.00     178    99999.0
 143    9:30   52.1    63    3.1   157      5.3   857.4    0.00     199    99999.0
 143    9:40   51.8    63    2.6   154      5.1   857.5    0.00     202    99999.0
 143    9:50   52.0    63    2.8   158      5.2   857.5    0.00     192    99999.0
 143   10:00   52.0    63    2.4   162      4.7   857.5    0.00     174    99999.0
 143   10:10   52.3    64    2.0   157      5.3   857.6    0.00     162    99999.0
 143   10:20   52.5    64    2.2   156      4.1   857.6    0.00     168    99999.0
 143   10:30   52.5    64    2.4   122      4.3   857.7    0.00     180    99999.0
 143   10:40   52.5    66    2.1   120      4.1   857.7    0.00     166    99999.0
 143   10:50   52.7    66    2.0   128      4.0   857.7    0.00     166    99999.0
 143   11:00   52.6    65    2.1   137      3.7   857.7    0.00     139    99999.0
 143   11:10   52.8    65    1.8    96      3.2   857.7    0.00     143    99999.0
 143   11:20   53.1    65    1.7   112      3.9   857.8    0.00     152    99999.0
 143   11:30   53.2    66    1.3   114      2.8   857.8    0.00     156    99999.0
 143   11:40   53.0    64    1.6   179      3.5   857.8    0.00     140    99999.0
 143   11:50   53.0    62    2.2   181      5.0   857.9    0.00     132    99999.0
 143   12:00   52.9    64    2.3   195      4.2   857.9    0.00     123    99999.0
 143   12:10   52.9    67    1.9   192      4.2   857.9    0.00     121    99999.0
 143   12:20   52.9    68    0.9   184      3.9   857.9    0.00     136    99999.0
 143   12:30   52.9    68    1.7   189      3.9   857.8    0.00     158    99999.0
 143   12:40   53.0    67    1.6   208      3.7   857.8    0.00     178    99999.0
 143   12:50   53.0    67    2.1   234      4.0   857.8    0.00     189    99999.0
 143   13:00   52.4    79    3.9   221      6.1   857.9    0.00     201    99999.0
 143   13:10   51.8    81    3.8   223      6.2   857.9    0.00     171    99999.0
 143   13:20   51.4    81    3.7   208      6.3   857.9    0.00     117    99999.0
 143   13:30   51.7    80    3.9   226      6.9   857.9    0.00     201    99999.0
 143   13:40   52.5    80    4.1   227      8.6   857.9    0.00     287    99999.0
 143   13:50   52.5    80    4.3   227      6.9   857.9    0.00     291    99999.0
 143   14:00   52.6    78    4.3   221      7.2   857.9    0.00     287    99999.0
 143   14:10   52.8    73    4.0   214      6.9   857.9    0.00     393    99999.0
 143   14:20   53.4    70    4.2   216      8.0   857.7    0.00     488    99999.0
 143   14:30   54.0    66    4.0   217      7.2   857.7    0.00     495    99999.0
 143   14:40   54.8    64    4.1   220      7.9   857.6    0.00     663    99999.0
 143   14:50   56.3    60    3.4   202      7.2   857.5    0.00     314    99999.0
 143   15:00   55.6    59    3.9   196      8.2   857.4    0.00     414    99999.0
 143   15:10   56.1    56    3.6   184      9.9   857.3    0.00     386    99999.0
 143   15:20   56.2    59    4.4   214      8.3   857.1    0.00     436    99999.0
 143   15:30   56.3    60    4.5   202      9.0   857.1    0.00     322    99999.0
 143   15:40   55.9    61    3.7   228      8.3   857.0    0.00     309    99999.0
 143   15:50   56.6    59    3.7   209      7.2   856.9    0.00     366    99999.0
 143   16:00   57.1    58    3.9   206      6.8   856.9    0.00     443    99999.0
 143   16:10   56.3    61    3.9   228      7.0   856.9    0.00     335    99999.0
 143   16:20   56.2    61    3.8   219      6.2   856.8    0.00     374    99999.0
 143   16:30   56.6    59    3.4   222      6.7   856.7    0.00     162    99999.0
 143   16:40   56.2    60    3.2   236      6.5   856.7    0.00     134    99999.0
 143   16:50   55.8    60    2.5   210      4.5   856.7    0.00     155    99999.0
 143   17:00   56.0    60    3.2   206      5.6   856.8    0.00     175    99999.0
 143   17:10   56.0    60    2.8   220      4.8   856.8    0.00     131    99999.0
 143   17:20   55.5    60    2.1   224      4.5   856.8    0.00     127    99999.0
 143   17:30   55.8    59    1.8   238      3.4   856.7    0.00     144    99999.0
 143   17:40   56.4    58    2.0   228      4.7   856.7    0.00     167    99999.0
 143   17:50   56.4    58    1.7   230      3.4   856.7    0.00     115    99999.0
 143   18:00   56.1    56    1.4   226      3.1   856.8    0.00      83    99999.0
 143   18:10   55.9    57    1.5   227      3.7   856.8    0.00      59    99999.0
 143   18:20   55.6    58    2.0   206      4.8   856.9    0.00      37    99999.0
 143   18:30   55.5    60    1.6   200      3.9   856.9    0.00      38    99999.0
 143   18:40   55.6    61    1.9   189      3.9   856.9    0.00      33    99999.0
 143   18:50   55.4    62    2.1   190      3.4   857.0    0.00      33    99999.0
 143   19:00   55.5    62    2.3   181      4.5   857.1    0.00      48    99999.0
 143   19:10   55.5    62    2.3   178      3.9   857.2    0.00      26    99999.0
 143   19:20   55.3    64    2.0   172      3.6   857.2    0.00      10    99999.0
 143   19:30   55.1    65    2.0   182      4.3   857.3    0.00       3    99999.0
 143   19:40   54.9    65    1.8   184      3.3   857.4    0.00       3    99999.0
 143   19:50   54.7    66    1.8   168      3.5   857.5    0.00       3    99999.0
 143   20:00   53.3    68    2.4   114      3.9   857.6    0.00       1    99999.0
 143   20:10   52.4    69    1.7   124      3.7   857.6    0.00       0    99999.0
 143   20:20   52.1    69    1.3   135      2.6   857.6    0.00       0    99999.0
 143   20:30   51.9    70    1.4   156      2.6   857.7    0.00       0    99999.0
 143   20:40   51.5    72    1.6   150      2.5   857.7    0.00       0    99999.0
 143   20:50   51.1    74    0.9   142      1.9   857.9    0.00       0    99999.0
 143   21:00   50.9    74    0.3   155      1.3   858.0    0.00       0    99999.0
 143   21:10   50.5    75    0.4   146      1.6   858.1    0.00       0    99999.0
 143   21:20   50.1    77    0.1   155      1.2   858.2    0.00       0    99999.0
 143   21:30   49.7    78    0.0   152      0.5   858.3    0.00       0    99999.0
 143   21:40   49.4    78    0.0     0      0.0   858.3    0.00       0    99999.0
 143   21:50   49.2    79    0.0     0      0.0   858.3    0.00       0    99999.0
 143   22:00   48.9    80    0.0     0      0.0   858.4    0.00       0    99999.0
 143   22:10   48.7    81    0.0     0      0.0   858.4    0.00       0    99999.0
 143   22:20   48.5    81    0.0     0      0.0   858.4    0.00       0    99999.0
 143   22:30   48.2    82    0.0     0      0.0   858.4    0.00       0    99999.0
 143   22:40   48.2    82    0.0   152      0.7   858.4    0.00       0    99999.0
 143   22:50   48.1    82    0.0     0      0.0   858.3    0.00       0    99999.0
 143   23:00   48.1    82    0.0     0      0.0   858.3    0.00       0    99999.0
 143   23:10   47.8    82    0.0     0      0.0   858.4    0.00       0    99999.0
 143   23:20   47.6    81    0.0     0      0.0   858.4    0.00       0    99999.0
 143   23:30   47.8    80    0.5   152      1.7   858.4    0.00       0    99999.0
 143   23:40   48.2    78    0.7   173      1.3   858.4    0.00       0    99999.0
 143   23:50   47.9    78    0.7   169      1.5   858.4    0.00       0    99999.0
 144    0:00   47.6    78    0.8   183      1.9   858.5    0.00       0    99999.0
 144    0:10   47.1    79    0.9   137      2.0   858.4    0.00       0    99999.0
 144    0:20   46.4    80    1.3   139      2.1   858.4    0.00       0    99999.0
 144    0:30   46.1    81    0.5   145      1.4   858.3    0.00       0    99999.0
 144    0:40   45.9    81    0.8   146      1.5   858.4    0.00       0    99999.0
 144    0:50   45.4    82    1.6   136      2.9   858.3    0.00       0    99999.0
 144    1:00   44.5    83    1.9   144      3.4   858.3    0.00       0    99999.0

Return to Delta, Utah graphs page.


Western Regional Climate Center,wrcc@dri.edu